KSQLKPAO

Guest
Details From KSQL - San Carlos
To KPAO - Palo Alto
Flight Number -
Tags generated
Created
Modified
Stats Distance 7 nm / 13 km
Max Altitude 0 ft / 0 m
Waypoints 2
Social Downloads 2
Likes 0
Share VATSIM

Download

Looking for another format? Having issues loading an existing format? Contact us
Advertisement - Login to hide

Notes

Basic altitude profile: - Ascent Rate: 1000ft/min - Ascent Speed: 120kts - Cruise Altitude: 3000ft - Cruise Speed: 120kts - Descent Rate: 1500ft/min - Descent Speed: 120kts Options: - Use NATs: yes - Use PACOTS: yes - Use low airways: yes - Use high airways: yes

Route

KSQL KPAO

ID Type Via Altitude Latitude Longitude Leg Dist Tot Dist Heading (true) Name
O KSQL APT - 0 ft / 0 m 37.51173˚ -122.24939˚ - 0 nm - San Carlos
O KPAO APT - 0 ft / 0 m 37.46089˚ -122.11482˚ 7 nm 7 nm 115° / 116° Palo Alto

Altitude Profile

Advertisement - Login to hide

KSQL

Details ICAO KSQL (SQL)
Name San Carlos
Region United States
Timezone America/Los_Angeles (UTC-8.0)
Stats Elevation 5 ft / 2 m (AMSL)
Location 37.511735° -122.249386°
Runways 1
Magnetic Variation 13.420° E

METAR

KSQL 181455Z AUTO 00000KT 10SM CLR 06/02 A3020 RMK AO2

Decode

TAF

Not found

Departure Runways

ID Width Length Bearing (true) Bearing (mag) Surface Threshold Offset Overrun Length
12 75 ft / 23 m 2,619 ft / 798 m 138.39° 124.97° Asphalt 0 ft / 0 m 299 ft / 91 m
30 75 ft / 23 m 2,619 ft / 798 m 318.40° 304.98° Asphalt 0 ft / 0 m 135 ft / 41 m

KPAO

Details ICAO KPAO (PAO)
Name Palo Alto
Region United States
Timezone America/Los_Angeles (UTC-8.0)
Stats Elevation 4 ft / 1 m (AMSL)
Location 37.460889° -122.114823°
Runways 1
Magnetic Variation 13.389° E

METAR

KPAO 181447Z 00000KT 10SM SKC 02/00 A3020

Decode

TAF

Not found

Destination Runways

ID Width Length Bearing (true) Bearing (mag) Surface Threshold Offset Overrun Length
31 75 ft / 23 m 2,659 ft / 810 m 321.81° 308.42° Asphalt 213 ft / 65 m 0 ft / 0 m
XXX 75 ft / 23 m 2,659 ft / 810 m 141.80° 128.41° Asphalt 0 ft / 0 m 197 ft / 60 m